Time;durP1;ratioP1;P1;durP2;ratioP2;P2;SDS_P1;SDS_P2;PMS_P1;PMS_P2;Temp;Humidity;BMP_temperature;BMP_pressure;BME280_temperature;BME280_humidity;BME280_pressure;Samples;Min_cycle;Max_cycle;Signal;HPM_P1;HPM_P2
2022/04/04 00:00:06;;;;;;;6.60;3.93;;;;;;;;;;5057131;28;20463;-71
2022/04/04 00:02:33;;;;;;;4.80;3.67;;;;;;;;;;5055985;28;20453;-71
2022/04/04 00:05:02;;;;;;;8.40;5.33;;;;;;;;;;5056036;28;20497;-71
2022/04/04 00:07:29;;;;;;;4.20;2.07;;;;;;;;;;5055696;28;20457;-71
2022/04/04 00:09:57;;;;;;;3.80;2.27;;;;;;;;;;5056382;28;20464;-70
2022/04/04 00:12:27;;;;;;;3.10;2.50;;;;;;;;;;5056083;28;20460;-71
2022/04/04 00:14:55;;;;;;;5.00;2.80;;;;;;;;;;5055885;28;20457;-71
2022/04/04 00:17:31;;;;;;;3.17;2.30;;;;;;;;;;5056770;28;20726;-71
2022/04/04 00:20:00;;;;;;;4.53;3.27;;;;;;;;;;5056148;28;20468;-71
2022/04/04 00:22:28;;;;;;;3.00;2.10;;;;;;;;;;5056445;28;20458;-71
2022/04/04 00:24:56;;;;;;;7.53;2.30;;;;;;;;;;5055397;28;20761;-70
2022/04/04 00:27:23;;;;;;;4.73;3.20;;;;;;;;;;5056649;28;20464;-71
2022/04/04 00:29:53;;;;;;;2.70;1.90;;;;;;;;;;5055710;28;20450;-71
2022/04/04 00:32:21;;;;;;;7.33;1.63;;;;;;;;;;5055857;28;20882;-71
2022/04/04 00:34:48;;;;;;;4.70;1.80;;;;;;;;;;5055993;28;20888;-71
2022/04/04 00:37:16;;;;;;;4.33;3.03;;;;;;;;;;5056098;28;20866;-70
2022/04/04 00:39:44;;;;;;;2.37;1.70;;;;;;;;;;5056061;28;20595;-71
2022/04/04 00:42:15;;;;;;;6.03;2.30;;;;;;;;;;5056516;28;20489;-70
2022/04/04 00:44:45;;;;;;;2.73;2.03;;;;;;;;;;5056422;28;20464;-71
2022/04/04 00:47:14;;;;;;;8.63;4.30;;;;;;;;;;5055431;28;20917;-71
2022/04/04 00:49:42;;;;;;;18.13;3.47;;;;;;;;;;5055880;28;20453;-71
2022/04/04 00:52:10;;;;;;;3.50;2.50;;;;;;;;;;5056872;28;20472;-70
2022/04/04 00:54:38;;;;;;;9.30;2.50;;;;;;;;;;5056246;28;20936;-70
2022/04/04 00:57:05;;;;;;;4.13;3.53;;;;;;;;;;5055319;28;20465;-71
2022/04/04 00:59:33;;;;;;;4.47;3.00;;;;;;;;;;5055587;28;20453;-71
2022/04/04 01:02:01;;;;;;;12.53;3.10;;;;;;;;;;5055314;28;20465;-71
2022/04/04 01:04:30;;;;;;;3.10;2.40;;;;;;;;;;5054483;28;20785;-71
2022/04/04 01:07:00;;;;;;;3.83;1.97;;;;;;;;;;5055321;28;20576;-71
2022/04/04 01:09:28;;;;;;;6.43;3.37;;;;;;;;;;5055669;28;20465;-71
2022/04/04 01:12:08;;;;;;;1.80;1.20;;;;;;;;;;5055653;28;20803;-71
2022/04/04 01:14:36;;;;;;;4.77;2.20;;;;;;;;;;5055873;28;20457;-71
2022/04/04 01:17:07;;;;;;;6.90;3.37;;;;;;;;;;5055606;28;20453;-71
2022/04/04 01:19:36;;;;;;;5.73;2.37;;;;;;;;;;5056258;28;20531;-70
2022/04/04 01:22:07;;;;;;;2.53;1.67;;;;;;;;;;5055071;28;20472;-71
2022/04/04 01:24:37;;;;;;;8.73;2.97;;;;;;;;;;5055513;28;20468;-71
2022/04/04 01:27:08;;;;;;;6.50;2.63;;;;;;;;;;5055188;28;20782;-71
2022/04/04 01:29:40;;;;;;;4.47;2.90;;;;;;;;;;5055372;28;20733;-71
2022/04/04 01:32:09;;;;;;;3.13;2.50;;;;;;;;;;5054821;28;20465;-71
2022/04/04 01:34:37;;;;;;;6.77;2.27;;;;;;;;;;5055765;28;20465;-71
2022/04/04 01:37:05;;;;;;;7.93;3.23;;;;;;;;;;5055185;28;20458;-70
2022/04/04 01:39:32;;;;;;;12.17;2.70;;;;;;;;;;5055595;28;20511;-71
2022/04/04 01:42:02;;;;;;;4.67;2.97;;;;;;;;;;5055765;28;21156;-71
2022/04/04 01:44:29;;;;;;;3.13;1.80;;;;;;;;;;5055661;28;20462;-71
2022/04/04 01:46:58;;;;;;;4.10;3.30;;;;;;;;;;5055125;28;20781;-71
2022/04/04 01:49:25;;;;;;;2.40;1.70;;;;;;;;;;5054886;28;20457;-71
2022/04/04 01:51:53;;;;;;;5.10;2.00;;;;;;;;;;5055090;28;20940;-71
2022/04/04 01:54:21;;;;;;;2.03;1.30;;;;;;;;;;5055343;28;20468;-71
2022/04/04 01:56:49;;;;;;;3.10;2.17;;;;;;;;;;5055121;28;20777;-71
2022/04/04 01:59:18;;;;;;;5.83;2.47;;;;;;;;;;5056029;28;20909;-71
2022/04/04 02:01:49;;;;;;;7.90;2.10;;;;;;;;;;5055212;28;20566;-71
2022/04/04 02:04:17;;;;;;;3.67;3.30;;;;;;;;;;5053734;28;20453;-71
2022/04/04 02:06:44;;;;;;;6.37;5.77;;;;;;;;;;5055443;28;20734;-71
2022/04/04 02:09:12;;;;;;;3.70;2.37;;;;;;;;;;5055426;28;20479;-71
2022/04/04 02:11:40;;;;;;;6.63;4.00;;;;;;;;;;5055235;28;20827;-71
2022/04/04 02:14:11;;;;;;;2.77;2.00;;;;;;;;;;5055233;28;20477;-71
2022/04/04 02:16:40;;;;;;;4.47;3.50;;;;;;;;;;5058021;28;20795;-71
2022/04/04 02:19:09;;;;;;;4.10;2.77;;;;;;;;;;5059563;28;20556;-71
2022/04/04 02:21:37;;;;;;;4.10;3.17;;;;;;;;;;5058583;28;20473;-71
2022/04/04 02:24:05;;;;;;;4.93;4.20;;;;;;;;;;5058392;28;20461;-71
2022/04/04 02:26:33;;;;;;;5.27;2.00;;;;;;;;;;5058460;28;20559;-71
2022/04/04 02:29:00;;;;;;;3.10;2.30;;;;;;;;;;5058977;28;20461;-71
2022/04/04 02:31:28;;;;;;;2.77;2.20;;;;;;;;;;5058371;28;20548;-71
2022/04/04 02:34:01;;;;;;;3.63;2.60;;;;;;;;;;5058655;28;20480;-71
2022/04/04 02:36:29;;;;;;;5.73;3.40;;;;;;;;;;5058133;28;20455;-71
2022/04/04 02:38:57;;;;;;;6.10;2.90;;;;;;;;;;5058538;28;20472;-70
2022/04/04 02:41:25;;;;;;;11.10;2.87;;;;;;;;;;5059088;28;20457;-71
2022/04/04 02:43:52;;;;;;;3.20;2.50;;;;;;;;;;5058233;28;20483;-71
2022/04/04 02:46:20;;;;;;;2.60;1.10;;;;;;;;;;5058494;28;20576;-71
2022/04/04 02:48:48;;;;;;;4.40;1.70;;;;;;;;;;5057700;28;20994;-71
2022/04/04 02:51:17;;;;;;;3.87;3.30;;;;;;;;;;5058232;28;20460;-71
2022/04/04 02:53:45;;;;;;;5.33;2.30;;;;;;;;;;5058636;28;20467;-71
2022/04/04 02:56:30;;;;;;;11.40;3.23;;;;;;;;;;5058186;28;20479;-71
2022/04/04 02:58:58;;;;;;;6.20;2.83;;;;;;;;;;5058429;28;20469;-71
2022/04/04 03:01:26;;;;;;;3.47;1.90;;;;;;;;;;5058284;28;20497;-71
2022/04/04 03:03:57;;;;;;;4.70;3.10;;;;;;;;;;5058203;28;20505;-71
2022/04/04 03:06:26;;;;;;;2.83;2.07;;;;;;;;;;5057766;28;20482;-71
2022/04/04 03:08:54;;;;;;;3.37;2.07;;;;;;;;;;5057640;28;20631;-71
2022/04/04 03:11:22;;;;;;;4.80;2.83;;;;;;;;;;5057154;28;20520;-71
2022/04/04 03:13:50;;;;;;;4.03;3.07;;;;;;;;;;5057123;28;20774;-71
2022/04/04 03:16:18;;;;;;;3.77;2.10;;;;;;;;;;5055334;28;20469;-71
2022/04/04 03:18:45;;;;;;;2.43;1.40;;;;;;;;;;5057285;28;20462;-71
2022/04/04 03:21:13;;;;;;;8.30;2.30;;;;;;;;;;5057862;28;20461;-71
2022/04/04 03:23:42;;;;;;;3.00;1.70;;;;;;;;;;5057842;28;20497;-71
2022/04/04 03:26:10;;;;;;;5.30;2.53;;;;;;;;;;5057802;28;20849;-71
2022/04/04 03:28:38;;;;;;;4.53;2.67;;;;;;;;;;5056353;28;20496;-71
2022/04/04 03:31:06;;;;;;;7.60;2.30;;;;;;;;;;5056792;28;20753;-71
2022/04/04 03:33:34;;;;;;;5.37;2.97;;;;;;;;;;5057622;28;20552;-71
2022/04/04 03:36:02;;;;;;;4.60;2.90;;;;;;;;;;5057331;28;20874;-71
2022/04/04 03:38:30;;;;;;;8.20;6.23;;;;;;;;;;5056467;28;20793;-71
2022/04/04 03:40:59;;;;;;;3.00;2.03;;;;;;;;;;5057494;28;20968;-71
2022/04/04 03:43:27;;;;;;;3.73;2.90;;;;;;;;;;5057006;28;20528;-71
2022/04/04 03:45:56;;;;;;;4.80;2.70;;;;;;;;;;5056552;28;20751;-70
2022/04/04 03:48:25;;;;;;;4.47;2.73;;;;;;;;;;5056723;28;20553;-71
2022/04/04 03:50:54;;;;;;;5.23;3.23;;;;;;;;;;5056246;28;20546;-71
2022/04/04 03:53:22;;;;;;;6.63;2.80;;;;;;;;;;5056245;28;20890;-71
2022/04/04 03:55:50;;;;;;;3.67;2.20;;;;;;;;;;5056386;28;20457;-71
2022/04/04 03:58:20;;;;;;;7.00;2.47;;;;;;;;;;5056765;28;20473;-71
2022/04/04 04:00:47;;;;;;;2.93;2.33;;;;;;;;;;5056747;28;20461;-71
2022/04/04 04:03:15;;;;;;;5.23;2.90;;;;;;;;;;5056401;28;20814;-74
2022/04/04 04:05:46;;;;;;;6.40;2.80;;;;;;;;;;5057202;28;20497;-71
2022/04/04 04:08:14;;;;;;;7.70;2.60;;;;;;;;;;5056214;28;20791;-70
2022/04/04 04:10:42;;;;;;;6.80;2.50;;;;;;;;;;5056138;28;20476;-71
2022/04/04 04:13:09;;;;;;;5.63;4.20;;;;;;;;;;5054792;28;20453;-71
2022/04/04 04:15:45;;;;;;;6.03;2.67;;;;;;;;;;5056266;28;20476;-71
2022/04/04 04:18:15;;;;;;;5.47;2.90;;;;;;;;;;5054554;28;20469;-71
2022/04/04 04:20:43;;;;;;;5.83;3.67;;;;;;;;;;5055573;28;20471;-71
2022/04/04 04:23:13;;;;;;;3.30;2.10;;;;;;;;;;5055874;28;20453;-70
2022/04/04 04:25:41;;;;;;;4.10;2.70;;;;;;;;;;5055648;28;20504;-71
2022/04/04 04:28:09;;;;;;;5.00;2.67;;;;;;;;;;5055982;28;20512;-71
2022/04/04 04:30:38;;;;;;;3.70;3.40;;;;;;;;;;5055065;28;20461;-71
2022/04/04 04:33:08;;;;;;;10.83;10.00;;;;;;;;;;5056479;28;20472;-70
2022/04/04 04:35:36;;;;;;;8.03;6.40;;;;;;;;;;5055171;28;20469;-71
2022/04/04 04:38:04;;;;;;;5.90;4.70;;;;;;;;;;5055408;28;20462;-71
2022/04/04 04:40:31;;;;;;;2.20;1.80;;;;;;;;;;5054171;28;20588;-72
2022/04/04 04:42:59;;;;;;;4.27;2.70;;;;;;;;;;5056047;28;20489;-71
2022/04/04 04:45:27;;;;;;;6.17;4.50;;;;;;;;;;5055341;28;20735;-70
2022/04/04 04:47:55;;;;;;;3.10;2.40;;;;;;;;;;5055438;28;20493;-71
2022/04/04 04:50:26;;;;;;;2.87;2.13;;;;;;;;;;5055571;28;20748;-71
2022/04/04 04:52:54;;;;;;;4.60;3.17;;;;;;;;;;5054886;28;20538;-71
2022/04/04 04:55:22;;;;;;;8.10;4.43;;;;;;;;;;5054875;28;20456;-70
2022/04/04 04:57:52;;;;;;;4.70;2.80;;;;;;;;;;5054769;28;20457;-70
2022/04/04 05:00:21;;;;;;;4.43;3.20;;;;;;;;;;5054700;28;20547;-71
2022/04/04 05:03:24;;;;;;;5.30;3.50;;;;;;;;;;5054297;28;20457;-71
2022/04/04 05:05:39;;;;;;;5.70;4.00;;;;;;;;;;5055080;28;20485;-71
2022/04/04 05:08:07;;;;;;;7.13;3.03;;;;;;;;;;5055137;28;20495;-71
2022/04/04 05:10:35;;;;;;;3.67;2.87;;;;;;;;;;5055323;28;20493;-71
2022/04/04 05:13:02;;;;;;;5.20;3.23;;;;;;;;;;5054034;28;20564;-70
2022/04/04 05:15:30;;;;;;;5.40;3.70;;;;;;;;;;5054742;28;20461;-70
2022/04/04 05:17:58;;;;;;;4.50;3.67;;;;;;;;;;5054147;28;20457;-71
2022/04/04 05:20:26;;;;;;;6.50;4.30;;;;;;;;;;5054183;28;20539;-71
2022/04/04 05:22:57;;;;;;;6.47;5.00;;;;;;;;;;5053635;28;20964;-71
2022/04/04 05:25:25;;;;;;;7.60;2.97;;;;;;;;;;5053934;28;20548;-70
2022/04/04 05:27:52;;;;;;;4.40;3.23;;;;;;;;;;5053898;28;20749;-71
2022/04/04 05:30:20;;;;;;;3.90;3.03;;;;;;;;;;5053592;28;20465;-71
2022/04/04 05:32:49;;;;;;;6.23;4.00;;;;;;;;;;5053449;28;20475;-70
2022/04/04 05:35:19;;;;;;;7.13;4.07;;;;;;;;;;5051375;28;20457;-71
2022/04/04 05:37:47;;;;;;;6.47;4.23;;;;;;;;;;5052410;28;20866;-71
2022/04/04 05:40:17;;;;;;;3.30;2.13;;;;;;;;;;5054256;28;20568;-71
2022/04/04 05:42:44;;;;;;;6.60;5.07;;;;;;;;;;5052679;28;20523;-71
2022/04/04 05:45:14;;;;;;;8.13;5.30;;;;;;;;;;5053658;28;20558;-71
2022/04/04 05:47:42;;;;;;;4.40;4.00;;;;;;;;;;5055035;28;20477;-71
2022/04/04 05:50:10;;;;;;;4.70;4.00;;;;;;;;;;5052234;28;20480;-71
2022/04/04 05:52:42;;;;;;;7.20;4.43;;;;;;;;;;5052428;28;20545;-72
2022/04/04 05:55:10;;;;;;;4.40;3.10;;;;;;;;;;5047787;28;20524;-71
2022/04/04 05:57:39;;;;;;;3.37;2.67;;;;;;;;;;5058486;28;20492;-70
2022/04/04 06:00:13;;;;;;;5.67;4.87;;;;;;;;;;5039960;28;20493;-70
2022/04/04 06:02:42;;;;;;;6.40;4.90;;;;;;;;;;5038262;28;20454;-70
2022/04/04 06:05:10;;;;;;;9.30;4.13;;;;;;;;;;5038208;28;20814;-70
2022/04/04 06:07:38;;;;;;;9.67;5.63;;;;;;;;;;5052205;28;20543;-71
2022/04/04 06:10:07;;;;;;;4.83;4.10;;;;;;;;;;5057459;28;20453;-71
2022/04/04 06:12:35;;;;;;;32.40;29.20;;;;;;;;;;5057800;28;20742;-71
2022/04/04 06:15:05;;;;;;;6.27;4.80;;;;;;;;;;5057792;28;20552;-70
2022/04/04 06:17:33;;;;;;;12.63;11.53;;;;;;;;;;5054573;28;20485;-71
2022/04/04 06:20:03;;;;;;;10.23;9.40;;;;;;;;;;5058601;28;20527;-71
2022/04/04 06:22:36;;;;;;;15.27;14.17;;;;;;;;;;5053217;28;20452;-71
2022/04/04 06:25:04;;;;;;;6.50;5.80;;;;;;;;;;5057587;28;20472;-71
2022/04/04 06:27:32;;;;;;;6.50;5.20;;;;;;;;;;5058192;28;20485;-70
2022/04/04 06:30:00;;;;;;;7.77;5.73;;;;;;;;;;5056518;28;20913;-70
2022/04/04 06:32:29;;;;;;;14.50;13.20;;;;;;;;;;5057302;28;20479;-70
2022/04/04 06:34:57;;;;;;;11.20;10.30;;;;;;;;;;5057339;28;20857;-71
2022/04/04 06:37:25;;;;;;;10.10;8.30;;;;;;;;;;5057249;28;20461;-71
2022/04/04 06:39:52;;;;;;;8.90;6.43;;;;;;;;;;5056545;28;20457;-71
2022/04/04 06:42:20;;;;;;;11.63;10.67;;;;;;;;;;5057009;28;20466;-70
2022/04/04 06:44:48;;;;;;;8.47;7.57;;;;;;;;;;5056774;28;20810;-70
2022/04/04 06:47:16;;;;;;;5.47;4.70;;;;;;;;;;5057750;28;20555;-70
2022/04/04 06:49:45;;;;;;;9.63;6.40;;;;;;;;;;5057407;28;21033;-71
2022/04/04 06:52:13;;;;;;;8.20;5.70;;;;;;;;;;5057131;28;20535;-70
2022/04/04 06:54:42;;;;;;;7.33;5.20;;;;;;;;;;5058171;28;20526;-72
2022/04/04 06:57:10;;;;;;;7.20;5.40;;;;;;;;;;5055943;28;20758;-70
2022/04/04 06:59:37;;;;;;;10.67;8.23;;;;;;;;;;5056605;28;20516;-71
2022/04/04 07:02:06;;;;;;;7.80;6.50;;;;;;;;;;5055051;28;20503;-71
2022/04/04 07:04:42;;;;;;;5.53;4.60;;;;;;;;;;5055342;28;20465;-72
2022/04/04 07:09:53;;;;;;;9.80;7.13;;;;;;;;;;5043544;28;20563;-72
2022/04/04 07:12:24;;;;;;;6.03;5.37;;;;;;;;;;5053818;28;20967;-72
2022/04/04 07:14:53;;;;;;;8.70;4.63;;;;;;;;;;5055110;28;20442;-72
2022/04/04 07:17:21;;;;;;;11.97;7.47;;;;;;;;;;5055828;28;20907;-72
2022/04/04 07:19:49;;;;;;;8.07;3.67;;;;;;;;;;5055703;28;20466;-71
2022/04/04 07:22:26;;;;;;;5.00;4.03;;;;;;;;;;5053370;28;20454;-71
2022/04/04 07:24:54;;;;;;;10.40;6.70;;;;;;;;;;5044682;28;20449;-71
2022/04/04 07:27:22;;;;;;;15.33;13.83;;;;;;;;;;5056054;28;20485;-71
2022/04/04 07:29:50;;;;;;;13.27;10.23;;;;;;;;;;5057279;28;20886;-71
2022/04/04 07:32:18;;;;;;;16.33;8.37;;;;;;;;;;5055539;28;20500;-71
2022/04/04 07:34:45;;;;;;;12.27;10.03;;;;;;;;;;5056648;28;20500;-71
2022/04/04 07:37:13;;;;;;;9.13;7.23;;;;;;;;;;5055368;28;20469;-71
2022/04/04 07:39:43;;;;;;;9.40;7.67;;;;;;;;;;5057149;28;20866;-71
2022/04/04 07:42:12;;;;;;;14.90;9.53;;;;;;;;;;5066214;28;20537;-71
2022/04/04 07:44:42;;;;;;;49.93;44.83;;;;;;;;;;5056058;28;20484;-71
2022/04/04 07:47:17;;;;;;;21.03;10.40;;;;;;;;;;5056128;28;20512;-71
2022/04/04 07:49:51;;;;;;;12.30;8.87;;;;;;;;;;5055606;28;20527;-71
2022/04/04 07:52:27;;;;;;;31.13;28.60;;;;;;;;;;5047550;28;20559;-71
2022/04/04 07:54:56;;;;;;;9.27;6.00;;;;;;;;;;5056246;28;20461;-71
2022/04/04 07:57:34;;;;;;;12.63;11.57;;;;;;;;;;5055962;28;20460;-71
2022/04/04 08:00:04;;;;;;;13.27;9.03;;;;;;;;;;5044377;28;20561;-71
2022/04/04 08:02:32;;;;;;;10.17;8.47;;;;;;;;;;5052848;28;20477;-71
2022/04/04 08:04:59;;;;;;;13.23;10.23;;;;;;;;;;5055725;28;20457;-71
2022/04/04 08:07:27;;;;;;;12.50;7.43;;;;;;;;;;5055581;28;20454;-70
2022/04/04 08:09:56;;;;;;;8.13;7.40;;;;;;;;;;5051287;28;20540;-71
2022/04/04 08:12:27;;;;;;;22.00;19.97;;;;;;;;;;5055246;28;20464;-70
2022/04/04 08:14:58;;;;;;;25.57;23.53;;;;;;;;;;5054534;28;20461;-71
2022/04/04 08:17:25;;;;;;;11.10;7.37;;;;;;;;;;5055044;28;20445;-71
2022/04/04 08:19:53;;;;;;;12.87;8.93;;;;;;;;;;5053294;28;20548;-71
2022/04/04 08:22:22;;;;;;;11.20;10.20;;;;;;;;;;5054786;28;20531;-71
2022/04/04 08:24:50;;;;;;;10.53;7.10;;;;;;;;;;5049401;28;20458;-72
2022/04/04 08:27:22;;;;;;;9.30;8.13;;;;;;;;;;5052746;28;20842;-71
2022/04/04 08:30:10;;;;;;;15.13;13.20;;;;;;;;;;5055278;28;20819;-72
2022/04/04 08:32:38;;;;;;;13.10;10.10;;;;;;;;;;5051899;28;20468;-71
2022/04/04 08:37:49;;;;;;;6.87;6.17;;;;;;;;;;5052534;28;20466;-71
2022/04/04 08:40:19;;;;;;;13.27;10.70;;;;;;;;;;5054721;28;20475;-71
2022/04/04 08:42:49;;;;;;;7.90;7.10;;;;;;;;;;5035671;28;20508;-71
2022/04/04 08:45:17;;;;;;;16.00;11.30;;;;;;;;;;5035681;28;20469;-71
2022/04/04 08:47:45;;;;;;;15.73;14.20;;;;;;;;;;5035733;28;20477;-71
2022/04/04 08:50:14;;;;;;;13.00;11.80;;;;;;;;;;5053549;28;20741;-71
2022/04/04 08:52:46;;;;;;;10.90;10.00;;;;;;;;;;5053564;28;20465;-72
2022/04/04 08:55:17;;;;;;;16.23;11.80;;;;;;;;;;5055482;28;20458;-72
2022/04/04 08:57:45;;;;;;;8.87;7.83;;;;;;;;;;5043401;28;20474;-71
2022/04/04 09:00:16;;;;;;;10.63;8.47;;;;;;;;;;5042995;28;20873;-71
2022/04/04 09:02:56;;;;;;;15.10;11.80;;;;;;;;;;5043453;28;20453;-71
2022/04/04 09:05:31;;;;;;;14.90;9.17;;;;;;;;;;5044643;28;20450;-72
2022/04/04 09:08:03;;;;;;;13.90;12.50;;;;;;;;;;5035846;28;20615;-71
2022/04/04 09:10:35;;;;;;;5.93;5.13;;;;;;;;;;5036093;28;20455;-71
2022/04/04 09:13:07;;;;;;;11.90;11.00;;;;;;;;;;5051297;28;20469;-70
2022/04/04 09:18:53;;;;;;;12.27;11.07;;;;;;;;;;5157080;27;20378;-70
2022/04/04 09:21:33;;;;;;;17.80;16.33;;;;;;;;;;5133353;27;20549;-69
2022/04/04 09:24:06;;;;;;;14.33;13.07;;;;;;;;;;5133789;27;20445;-70
2022/04/04 09:26:38;;;;;;;10.50;7.37;;;;;;;;;;5133606;27;20870;-71
2022/04/04 09:29:07;;;;;;;7.73;6.20;;;;;;;;;;5134414;27;20885;-71
2022/04/04 09:31:34;;;;;;;9.70;8.27;;;;;;;;;;5134319;27;20552;-70
2022/04/04 09:34:04;;;;;;;5.63;4.50;;;;;;;;;;5127910;27;20459;-71
2022/04/04 09:36:46;;;;;;;10.23;8.40;;;;;;;;;;5121835;27;20569;-70
2022/04/04 09:39:16;;;;;;;9.60;8.60;;;;;;;;;;5132422;27;20801;-76
2022/04/04 09:41:44;;;;;;;10.00;9.00;;;;;;;;;;5130186;27;20466;-72
2022/04/04 09:44:12;;;;;;;7.03;6.33;;;;;;;;;;5119350;27;21032;-70
2022/04/04 09:46:39;;;;;;;6.10;5.33;;;;;;;;;;5123300;27;20777;-69
2022/04/04 09:49:20;;;;;;;7.67;5.93;;;;;;;;;;5132641;27;20858;-71
2022/04/04 09:51:52;;;;;;;8.70;6.37;;;;;;;;;;5131625;27;20491;-71
2022/04/04 09:54:34;;;;;;;13.03;11.77;;;;;;;;;;5131238;27;20489;-71
2022/04/04 09:57:11;;;;;;;8.70;7.90;;;;;;;;;;5111190;27;20931;-72
2022/04/04 09:59:38;;;;;;;22.50;20.83;;;;;;;;;;5135279;27;20450;-71
2022/04/04 10:02:05;;;;;;;16.30;15.17;;;;;;;;;;5132358;27;20457;-71
2022/04/04 10:04:33;;;;;;;9.67;8.53;;;;;;;;;;5131382;27;20442;-71
2022/04/04 10:07:03;;;;;;;23.00;21.30;;;;;;;;;;5131468;27;20466;-71
2022/04/04 10:09:31;;;;;;;28.33;25.97;;;;;;;;;;5134405;27;20536;-72
2022/04/04 10:12:19;;;;;;;23.43;21.40;;;;;;;;;;5132097;27;20858;-71
2022/04/04 10:14:47;;;;;;;31.50;29.07;;;;;;;;;;5131329;27;21033;-72
2022/04/04 10:17:16;;;;;;;30.77;28.27;;;;;;;;;;5132199;27;20573;-72
2022/04/04 10:19:48;;;;;;;31.27;28.67;;;;;;;;;;5133103;27;21158;-71
2022/04/04 10:22:18;;;;;;;30.00;27.50;;;;;;;;;;5118632;27;20901;-72
2022/04/04 10:24:46;;;;;;;24.20;22.67;;;;;;;;;;5128741;27;20473;-72
2022/04/04 10:27:13;;;;;;;37.20;33.90;;;;;;;;;;5129621;27;20454;-72
2022/04/04 10:29:47;;;;;;;39.40;36.07;;;;;;;;;;5102651;28;20439;-72
2022/04/04 10:32:25;;;;;;;39.10;35.90;;;;;;;;;;5108117;27;20443;-70
2022/04/04 10:34:56;;;;;;;48.87;44.37;;;;;;;;;;5097628;28;21107;-72
2022/04/04 10:37:28;;;;;;;39.97;36.40;;;;;;;;;;5116695;27;20482;-71
2022/04/04 10:39:55;;;;;;;41.40;37.30;;;;;;;;;;5120087;27;20464;-71
2022/04/04 10:42:27;;;;;;;35.17;31.93;;;;;;;;;;5113878;27;20463;-72
2022/04/04 10:44:59;;;;;;;41.63;37.53;;;;;;;;;;5119777;27;20462;-71
2022/04/04 10:47:28;;;;;;;45.57;41.17;;;;;;;;;;5117581;27;20463;-71
2022/04/04 10:50:03;;;;;;;50.20;41.07;;;;;;;;;;5129148;27;21064;-72
2022/04/04 10:52:39;;;;;;;54.73;43.03;;;;;;;;;;5105932;28;20893;-71
2022/04/04 10:55:27;;;;;;;40.53;36.27;;;;;;;;;;5118986;27;20434;-72
2022/04/04 10:57:58;;;;;;;52.30;44.37;;;;;;;;;;5113303;28;20511;-71
2022/04/04 11:00:32;;;;;;;45.00;39.97;;;;;;;;;;5118718;27;20453;-71
2022/04/04 11:03:03;;;;;;;49.83;43.20;;;;;;;;;;5118260;27;20479;-71
2022/04/04 11:08:44;;;;;;;40.33;36.70;;;;;;;;;;5106125;28;20557;-72
2022/04/04 11:11:21;;;;;;;39.73;36.53;;;;;;;;;;5118613;27;20454;-71
2022/04/04 11:13:55;;;;;;;38.77;35.07;;;;;;;;;;5118560;27;20457;-71
2022/04/04 11:16:22;;;;;;;45.97;41.40;;;;;;;;;;5116435;27;20466;-72
2022/04/04 11:18:54;;;;;;;39.47;36.20;;;;;;;;;;5119801;27;20730;-72
2022/04/04 11:21:43;;;;;;;38.43;34.73;;;;;;;;;;5107895;27;20491;-72
2022/04/04 11:24:12;;;;;;;38.77;34.83;;;;;;;;;;5114356;27;20505;-72
2022/04/04 11:26:40;;;;;;;42.23;38.23;;;;;;;;;;5105064;27;20459;-72
2022/04/04 11:29:23;;;;;;;51.77;46.63;;;;;;;;;;5118328;27;20611;-72
2022/04/04 11:31:56;;;;;;;47.90;43.10;;;;;;;;;;5117543;27;20483;-72
2022/04/04 11:34:28;;;;;;;36.57;33.13;;;;;;;;;;5117704;27;20439;-74
2022/04/04 11:37:27;;;;;;;46.00;40.83;;;;;;;;;;5117477;27;20485;-71
2022/04/04 11:40:13;;;;;;;34.67;31.67;;;;;;;;;;5116566;27;20467;-72
2022/04/04 11:42:51;;;;;;;28.97;26.67;;;;;;;;;;5119792;27;20508;-73
2022/04/04 11:45:20;;;;;;;43.60;39.70;;;;;;;;;;5118119;27;20446;-73
2022/04/04 11:48:23;;;;;;;49.80;44.50;;;;;;;;;;5117457;27;20467;-72
2022/04/04 11:51:04;;;;;;;36.03;33.13;;;;;;;;;;5123323;27;20548;-73
2022/04/04 11:53:38;;;;;;;43.87;39.67;;;;;;;;;;5118832;27;20499;-73
2022/04/04 11:56:23;;;;;;;31.97;29.57;;;;;;;;;;5118718;27;20462;-72
2022/04/04 11:58:53;;;;;;;46.80;42.40;;;;;;;;;;5125426;27;20454;-73
2022/04/04 12:01:35;;;;;;;42.63;38.90;;;;;;;;;;5138652;27;20454;-73
2022/04/04 12:04:06;;;;;;;29.97;27.37;;;;;;;;;;5131501;27;20450;-73
2022/04/04 12:06:34;;;;;;;35.97;32.87;;;;;;;;;;5116179;28;20450;-73
2022/04/04 12:09:13;;;;;;;37.50;34.57;;;;;;;;;;5132869;27;20465;-72
2022/04/04 12:12:09;;;;;;;36.23;33.03;;;;;;;;;;5128858;27;20470;-73
2022/04/04 12:14:37;;;;;;;28.30;26.10;;;;;;;;;;5136941;27;20461;-72
2022/04/04 12:17:07;;;;;;;38.20;34.50;;;;;;;;;;5137159;27;20512;-74
2022/04/04 12:19:50;;;;;;;45.43;40.73;;;;;;;;;;5137412;27;20442;-71
2022/04/04 12:25:05;;;;;;;37.37;33.87;;;;;;;;;;5118669;27;20774;-74
2022/04/04 12:27:36;;;;;;;49.00;44.10;;;;;;;;;;5116189;27;20446;-73
2022/04/04 12:30:05;;;;;;;51.40;46.10;;;;;;;;;;5116936;27;20446;-73
2022/04/04 12:32:41;;;;;;;44.23;39.83;;;;;;;;;;5103273;28;20451;-73
2022/04/04 12:35:09;;;;;;;26.30;24.20;;;;;;;;;;5111655;27;20450;-74
2022/04/04 12:37:55;;;;;;;40.07;36.77;;;;;;;;;;5111903;27;20789;-74
2022/04/04 12:40:23;;;;;;;36.27;33.07;;;;;;;;;;5117502;27;20455;-74
2022/04/04 12:43:06;;;;;;;25.83;23.87;;;;;;;;;;5116435;27;20479;-71
2022/04/04 12:45:37;;;;;;;28.37;26.17;;;;;;;;;;5077439;28;20503;-72
2022/04/04 12:48:08;;;;;;;25.20;23.47;;;;;;;;;;5117567;27;20873;-73
2022/04/04 12:50:38;;;;;;;33.03;30.43;;;;;;;;;;5116043;27;20463;-74
2022/04/04 12:53:07;;;;;;;8.90;8.00;;;;;;;;;;5115005;27;20918;-73
2022/04/04 12:58:20;;;;;;;13.93;12.77;;;;;;;;;;5106108;28;20474;-73
2022/04/04 13:00:49;;;;;;;11.47;10.37;;;;;;;;;;5102269;28;20458;-73
2022/04/04 13:03:25;;;;;;;14.73;13.47;;;;;;;;;;5113228;27;20549;-73
2022/04/04 13:05:55;;;;;;;10.90;9.90;;;;;;;;;;5116084;27;20457;-74
2022/04/04 13:08:26;;;;;;;12.77;11.57;;;;;;;;;;5115229;27;20446;-74
2022/04/04 13:11:06;;;;;;;8.37;7.57;;;;;;;;;;5115586;27;22016;-73
2022/04/04 13:13:57;;;;;;;9.07;6.97;;;;;;;;;;5114804;27;20446;-75
2022/04/04 13:16:36;;;;;;;7.50;6.50;;;;;;;;;;5114498;27;20464;-74
2022/04/04 13:19:12;;;;;;;7.33;5.77;;;;;;;;;;5115689;27;20439;-74
2022/04/04 13:21:44;;;;;;;7.00;5.57;;;;;;;;;;5115266;27;20503;-73
2022/04/04 13:24:15;;;;;;;10.87;8.50;;;;;;;;;;5114394;27;20505;-73
2022/04/04 13:26:43;;;;;;;5.63;4.47;;;;;;;;;;5115347;27;20458;-73
2022/04/04 13:29:10;;;;;;;7.30;6.13;;;;;;;;;;5114466;27;20450;-73
2022/04/04 13:31:42;;;;;;;5.63;5.10;;;;;;;;;;5115338;27;20473;-73
2022/04/04 13:34:19;;;;;;;13.67;9.87;;;;;;;;;;5105163;27;20611;-74
2022/04/04 13:36:49;;;;;;;11.00;6.10;;;;;;;;;;5105974;27;20547;-73
2022/04/04 13:39:22;;;;;;;8.43;7.20;;;;;;;;;;5114765;27;20470;-74
2022/04/04 13:41:51;;;;;;;7.30;6.47;;;;;;;;;;5114037;27;20473;-74
2022/04/04 13:44:19;;;;;;;8.27;7.27;;;;;;;;;;5107676;28;20528;-73
2022/04/04 13:46:47;;;;;;;5.57;5.07;;;;;;;;;;5111455;27;20489;-73
2022/04/04 13:49:15;;;;;;;9.60;6.73;;;;;;;;;;5101564;27;20462;-72
2022/04/04 13:51:49;;;;;;;5.50;4.60;;;;;;;;;;5111989;27;20462;-73
2022/04/04 13:54:16;;;;;;;7.30;6.57;;;;;;;;;;5105473;28;20458;-73
2022/04/04 13:56:47;;;;;;;9.00;8.10;;;;;;;;;;5114252;27;20748;-73
2022/04/04 13:59:14;;;;;;;7.83;6.70;;;;;;;;;;5114662;27;20485;-74
2022/04/04 14:01:46;;;;;;;11.30;5.90;;;;;;;;;;5109071;27;20586;-71
2022/04/04 14:04:19;;;;;;;8.33;7.43;;;;;;;;;;5094998;28;20549;-74
2022/04/04 14:06:48;;;;;;;10.00;9.00;;;;;;;;;;5101024;27;20445;-73
2022/04/04 14:09:18;;;;;;;7.80;6.10;;;;;;;;;;5117529;27;20457;-73
2022/04/04 14:11:45;;;;;;;6.63;4.70;;;;;;;;;;5117600;27;20435;-74
2022/04/04 14:14:12;;;;;;;9.00;6.90;;;;;;;;;;5116716;27;21016;-74
2022/04/04 14:16:46;;;;;;;7.60;5.60;;;;;;;;;;5117030;27;20475;-74
2022/04/04 14:19:15;;;;;;;7.00;5.97;;;;;;;;;;5118129;27;20901;-74
2022/04/04 14:21:48;;;;;;;5.47;4.77;;;;;;;;;;5117304;27;20589;-74
2022/04/04 14:24:16;;;;;;;8.00;7.20;;;;;;;;;;5116734;27;20446;-74
2022/04/04 14:26:53;;;;;;;6.43;5.80;;;;;;;;;;5128787;27;21028;-74
2022/04/04 14:29:25;;;;;;;6.70;5.70;;;;;;;;;;5137262;27;20449;-74
2022/04/04 14:34:59;;;;;;;11.23;7.87;;;;;;;;;;5073067;28;20549;-73
2022/04/04 14:37:34;;;;;;;7.43;6.27;;;;;;;;;;5097451;28;20476;-75
2022/04/04 14:40:04;;;;;;;7.27;6.50;;;;;;;;;;5108722;28;20454;-74
2022/04/04 14:42:31;;;;;;;7.27;6.10;;;;;;;;;;5118290;27;20725;-73
2022/04/04 14:45:01;;;;;;;7.73;6.27;;;;;;;;;;5099968;27;20451;-72
2022/04/04 14:47:33;;;;;;;8.13;7.03;;;;;;;;;;5116805;27;20899;-73
2022/04/04 14:50:09;;;;;;;6.60;5.80;;;;;;;;;;5117825;27;20462;-73
2022/04/04 14:52:45;;;;;;;5.17;4.60;;;;;;;;;;5107700;28;20451;-73
2022/04/04 14:55:13;;;;;;;4.17;3.00;;;;;;;;;;5110383;27;20558;-73
2022/04/04 14:57:57;;;;;;;5.70;4.67;;;;;;;;;;5100118;27;20494;-74
2022/04/04 15:00:25;;;;;;;6.60;5.47;;;;;;;;;;5098819;28;20970;-73
2022/04/04 15:03:12;;;;;;;7.90;5.20;;;;;;;;;;5106758;27;20467;-74
2022/04/04 15:05:40;;;;;;;5.00;3.90;;;;;;;;;;5110006;28;20475;-74
2022/04/04 15:08:07;;;;;;;4.80;4.10;;;;;;;;;;5106376;27;20447;-74
2022/04/04 15:10:34;;;;;;;7.53;6.27;;;;;;;;;;5116753;27;20465;-74
2022/04/04 15:13:16;;;;;;;8.00;7.07;;;;;;;;;;5116984;27;20935;-74